createdAt,value
2019-05-01T00:01:29.934Z,9.60
2019-05-01T00:04:00.802Z,9.64
2019-05-01T00:06:28.675Z,9.70
2019-05-01T00:08:55.146Z,9.68
2019-05-01T00:11:21.140Z,9.72
2019-05-01T00:13:47.120Z,9.64
2019-05-01T00:16:13.102Z,9.59
2019-05-01T00:18:39.098Z,9.55
2019-05-01T00:21:05.083Z,9.44
2019-05-01T00:23:31.074Z,9.43
2019-05-01T00:25:57.036Z,9.52
2019-05-01T00:28:23.237Z,9.55
2019-05-01T00:30:49.255Z,9.58
2019-05-01T00:33:15.110Z,9.54
2019-05-01T00:35:41.079Z,9.59
2019-05-01T00:38:07.064Z,9.59
2019-05-01T00:40:33.050Z,9.60
2019-05-01T00:42:59.005Z,9.59
2019-05-01T00:45:24.982Z,9.63
2019-05-01T00:47:50.947Z,9.59
2019-05-01T00:50:16.933Z,9.53
2019-05-01T00:52:42.806Z,9.46
2019-05-01T00:55:27.492Z,9.44
2019-05-01T00:58:11.997Z,9.45
2019-05-01T01:00:56.501Z,9.40
2019-05-01T01:03:22.498Z,9.39
2019-05-01T01:05:48.366Z,9.43
2019-05-01T01:08:14.405Z,9.46
2019-05-01T01:10:40.382Z,9.55
2019-05-01T01:13:06.343Z,9.60
2019-05-01T01:15:32.304Z,9.60
2019-05-01T01:17:58.262Z,9.61
2019-05-01T01:20:24.249Z,9.57
2019-05-01T01:22:50.210Z,9.60
2019-05-01T01:25:16.189Z,9.62
2019-05-01T01:27:42.162Z,9.60
2019-05-01T01:30:08.257Z,9.57
2019-05-01T01:32:34.233Z,9.59
2019-05-01T01:35:00.191Z,9.64
2019-05-01T01:37:26.155Z,9.66
2019-05-01T01:39:52.118Z,9.71
2019-05-01T01:42:18.813Z,9.69
2019-05-01T01:44:49.507Z,9.68
2019-05-01T01:47:15.571Z,9.68
2019-05-01T01:49:41.535Z,9.71
2019-05-01T01:52:07.702Z,9.70
2019-05-01T01:54:33.958Z,9.72
2019-05-01T01:57:00.029Z,9.75
2019-05-01T01:59:26.406Z,9.77
2019-05-01T02:02:06.102Z,9.81
2019-05-01T02:04:40.030Z,9.78
2019-05-01T02:07:05.991Z,9.74
2019-05-01T02:09:31.959Z,9.79
2019-05-01T02:11:57.922Z,9.86
2019-05-01T02:14:23.994Z,9.92
2019-05-01T02:16:49.954Z,9.92
2019-05-01T02:19:15.929Z,9.95
2019-05-01T02:21:41.916Z,9.85
2019-05-01T02:24:07.916Z,9.88
2019-05-01T02:26:38.329Z,9.87
2019-05-01T02:29:08.870Z,9.82
2019-05-01T02:31:39.671Z,9.85
2019-05-01T02:34:06.476Z,9.89
2019-05-01T02:36:32.450Z,9.93
2019-05-01T02:38:58.908Z,9.85
2019-05-01T02:41:26.722Z,9.83
2019-05-01T02:43:54.499Z,9.79
2019-05-01T02:46:21.490Z,9.85
2019-05-01T02:48:52.771Z,9.82
2019-05-01T02:51:17.748Z,9.83
2019-05-01T02:53:45.310Z,9.88
2019-05-01T02:56:17.402Z,9.89
2019-05-01T02:58:43.797Z,9.88
2019-05-01T03:01:09.771Z,9.84
2019-05-01T03:03:35.847Z,9.84
2019-05-01T03:06:01.813Z,9.78
2019-05-01T03:08:27.791Z,9.78
2019-05-01T03:10:53.787Z,9.81
2019-05-01T03:13:20.550Z,9.85
2019-05-01T03:15:46.959Z,9.77
2019-05-01T03:21:01.049Z,9.71
2019-05-01T03:23:31.506Z,9.74
2019-05-01T03:25:57.466Z,9.81
2019-05-01T03:28:23.466Z,9.84
2019-05-01T03:30:49.444Z,9.86
2019-05-01T03:33:15.396Z,9.85
2019-05-01T03:35:41.749Z,9.85
2019-05-01T03:38:08.057Z,9.84
2019-05-01T03:40:34.723Z,9.81
2019-05-01T03:43:00.703Z,9.75
2019-05-01T03:45:26.687Z,9.73
2019-05-01T03:47:53.339Z,9.68
2019-05-01T03:50:19.339Z,9.63
2019-05-01T03:52:45.280Z,9.64
2019-05-01T03:55:11.256Z,9.65
2019-05-01T03:57:37.221Z,9.68
2019-05-01T04:00:06.317Z,9.70
2019-05-01T04:02:36.947Z,9.69
2019-05-01T04:05:03.935Z,9.66
2019-05-01T04:07:29.966Z,9.67
2019-05-01T04:09:55.933Z,9.67
2019-05-01T04:12:21.982Z,9.62
2019-05-01T04:14:48.043Z,9.55
2019-05-01T04:17:16.246Z,9.55
2019-05-01T04:19:42.341Z,9.54
2019-05-01T04:22:10.215Z,9.54
2019-05-01T04:24:36.295Z,9.56
2019-05-01T04:27:03.453Z,9.61
2019-05-01T04:29:34.093Z,9.56
2019-05-01T04:32:01.988Z,9.54
2019-05-01T04:34:41.686Z,9.54
2019-05-01T04:37:09.663Z,9.57
2019-05-01T04:39:35.920Z,9.57
2019-05-01T04:42:02.306Z,9.60
2019-05-01T04:44:28.255Z,9.64
2019-05-01T04:46:54.336Z,9.64
2019-05-01T04:49:20.617Z,9.66
2019-05-01T04:51:46.996Z,9.68
2019-05-01T04:54:12.990Z,9.70
2019-05-01T04:56:38.963Z,9.69
2019-05-01T04:59:04.929Z,9.68
2019-05-01T05:01:49.412Z,9.69
2019-05-01T05:04:15.386Z,9.72
2019-05-01T05:06:41.486Z,9.73
2019-05-01T05:09:07.451Z,9.75
2019-05-01T05:14:24.585Z,9.79
2019-05-01T05:17:01.526Z,9.79
2019-05-01T05:19:27.491Z,9.82
2019-05-01T05:21:53.494Z,9.85
2019-05-01T05:24:19.567Z,9.87
2019-05-01T05:26:45.535Z,9.88
2019-05-01T05:29:13.199Z,9.92
2019-05-01T05:31:40.715Z,9.94
2019-05-01T05:34:08.491Z,9.96
2019-05-01T05:36:36.268Z,9.98
2019-05-01T05:39:08.889Z,10.02
2019-05-01T05:41:35.962Z,10.06
2019-05-01T05:44:02.074Z,10.09
2019-05-01T05:46:28.270Z,10.10
2019-05-01T05:48:54.265Z,10.15
2019-05-01T05:54:08.893Z,10.21
2019-05-01T05:59:29.585Z,10.25
2019-05-01T06:02:02.547Z,10.29
2019-05-01T06:04:33.990Z,10.29
2019-05-01T06:07:12.518Z,10.33
2019-05-01T06:09:44.669Z,10.35
2019-05-01T06:12:24.149Z,10.40
2019-05-01T06:15:02.276Z,10.41
2019-05-01T06:17:29.853Z,10.42
2019-05-01T06:20:15.917Z,10.44
2019-05-01T06:22:45.180Z,10.47
2019-05-01T06:25:22.324Z,10.49
2019-05-01T06:27:49.305Z,10.52
2019-05-01T06:30:15.638Z,10.57
2019-05-01T06:32:41.999Z,10.58
2019-05-01T06:35:07.991Z,10.60
2019-05-01T06:37:35.767Z,10.59
2019-05-01T06:40:03.968Z,10.60
2019-05-01T06:42:30.099Z,10.57
2019-05-01T06:45:04.062Z,10.53
2019-05-01T06:47:48.731Z,10.55
2019-05-01T06:50:17.322Z,10.62
2019-05-01T06:52:43.510Z,10.68
2019-05-01T06:55:09.506Z,10.73
2019-05-01T06:57:38.302Z,10.78
2019-05-01T07:00:08.072Z,10.80
2019-05-01T07:02:36.903Z,10.77
2019-05-01T07:05:03.784Z,10.77
2019-05-01T07:07:30.682Z,10.76
2019-05-01T07:09:57.499Z,10.83
2019-05-01T07:12:28.249Z,10.79
2019-05-01T07:14:53.170Z,10.85
2019-05-01T07:17:20.087Z,10.86
2019-05-01T07:22:44.136Z,10.90
2019-05-01T07:25:10.173Z,10.94
2019-05-01T07:27:36.190Z,10.95
2019-05-01T07:30:05.149Z,11.00
2019-05-01T07:32:31.122Z,11.05
2019-05-01T07:35:02.017Z,11.12
2019-05-01T07:37:25.893Z,11.23
2019-05-01T07:39:52.971Z,11.27
2019-05-01T07:42:29.213Z,11.30
2019-05-01T07:45:15.307Z,11.32
2019-05-01T07:47:43.379Z,11.35
2019-05-01T07:50:10.071Z,11.36
2019-05-01T07:52:36.159Z,11.41
2019-05-01T07:55:04.355Z,11.44
2019-05-01T07:57:34.454Z,11.50
2019-05-01T08:00:03.196Z,11.56
2019-05-01T08:02:31.034Z,11.60
2019-05-01T08:04:54.295Z,11.58
2019-05-01T08:07:20.287Z,11.61
2019-05-01T08:09:50.212Z,11.68
2019-05-01T08:12:14.524Z,11.69
2019-05-01T08:14:40.508Z,11.70
2019-05-01T08:17:12.828Z,11.73
2019-05-01T08:19:39.368Z,11.72
2019-05-01T08:22:11.218Z,11.75
2019-05-01T08:24:37.284Z,11.78
2019-05-01T08:27:03.446Z,11.86
2019-05-01T08:29:47.666Z,11.93
2019-05-01T08:32:18.567Z,11.95
2019-05-01T08:34:49.023Z,11.93
2019-05-01T08:37:12.366Z,11.95
2019-05-01T08:39:39.793Z,11.99
2019-05-01T08:42:07.009Z,12.04
2019-05-01T08:44:34.982Z,12.17
2019-05-01T08:47:05.685Z,12.13
2019-05-01T08:49:33.650Z,12.10
2019-05-01T08:51:59.630Z,12.07
2019-05-01T08:54:28.815Z,12.02
2019-05-01T08:56:58.268Z,12.00
2019-05-01T08:59:23.966Z,11.92
2019-05-01T09:01:50.604Z,11.86
2019-05-01T09:04:18.805Z,11.86
2019-05-01T09:06:45.230Z,11.77
2019-05-01T09:09:11.346Z,11.70
2019-05-01T09:11:37.436Z,11.73
2019-05-01T09:14:03.429Z,11.81
2019-05-01T09:16:30.226Z,11.88
2019-05-01T09:18:56.321Z,11.99
2019-05-01T09:21:22.316Z,12.09
2019-05-01T09:23:51.452Z,12.17
2019-05-01T09:26:17.985Z,12.25
2019-05-01T09:29:04.147Z,12.33
2019-05-01T09:31:33.875Z,12.37
2019-05-01T09:34:00.123Z,12.38
2019-05-01T09:36:26.121Z,12.37
2019-05-01T09:38:52.096Z,12.36
2019-05-01T09:41:18.063Z,12.38
2019-05-01T09:43:44.054Z,12.37
2019-05-01T09:46:09.990Z,12.47
2019-05-01T09:48:36.090Z,12.57
2019-05-01T09:53:41.062Z,12.81
2019-05-01T09:56:11.630Z,12.90
2019-05-01T09:58:37.591Z,12.93
2019-05-01T10:01:03.762Z,13.00
2019-05-01T10:03:29.740Z,13.01
2019-05-01T10:05:55.737Z,12.96
2019-05-01T10:08:21.710Z,12.96
2019-05-01T10:11:06.949Z,12.99
2019-05-01T10:13:34.250Z,13.01
2019-05-01T10:16:03.331Z,13.06
2019-05-01T10:18:29.255Z,13.09
2019-05-01T10:20:55.398Z,13.16
2019-05-01T10:23:34.343Z,13.21
2019-05-01T10:26:02.261Z,13.32
2019-05-01T10:28:33.358Z,13.33
2019-05-01T10:31:06.942Z,13.28
2019-05-01T10:33:42.634Z,13.34
2019-05-01T10:36:17.740Z,13.35
2019-05-01T10:38:40.017Z,13.33
2019-05-01T10:41:09.254Z,13.43
2019-05-01T10:43:36.997Z,13.35
2019-05-01T10:46:03.124Z,13.32
2019-05-01T10:48:29.149Z,13.39
2019-05-01T10:50:55.244Z,13.51
2019-05-01T10:53:21.324Z,13.54
2019-05-01T10:55:47.297Z,13.64
2019-05-01T10:58:18.075Z,13.71
2019-05-01T11:00:44.970Z,13.69
2019-05-01T11:03:11.024Z,13.67
2019-05-01T11:05:36.993Z,13.69
2019-05-01T11:08:02.963Z,13.75
2019-05-01T11:10:29.147Z,13.79
2019-05-01T11:12:55.297Z,13.89
2019-05-01T11:15:21.275Z,13.95
2019-05-01T11:17:47.286Z,14.02
2019-05-01T11:20:13.571Z,14.00
2019-05-01T11:22:39.545Z,14.02
2019-05-01T11:25:06.131Z,14.16
2019-05-01T11:27:31.999Z,14.22
2019-05-01T11:29:57.988Z,14.24
2019-05-01T11:32:25.857Z,14.27
2019-05-01T11:34:53.723Z,14.28
2019-05-01T11:37:33.692Z,14.35
2019-05-01T11:40:10.551Z,14.51
2019-05-01T11:42:36.612Z,14.62
2019-05-01T11:45:04.503Z,14.71
2019-05-01T11:47:30.486Z,14.75
2019-05-01T11:49:56.458Z,14.78
2019-05-01T11:52:22.448Z,14.63
2019-05-01T11:54:48.422Z,14.60
2019-05-01T11:57:14.428Z,14.41
2019-05-01T11:59:40.442Z,14.30
2019-05-01T12:02:06.515Z,14.30
2019-05-01T12:04:32.508Z,14.35
2019-05-01T12:06:58.511Z,14.38
2019-05-01T12:09:24.498Z,14.46
2019-05-01T12:11:52.448Z,14.54
2019-05-01T12:14:18.512Z,14.67
2019-05-01T12:16:55.135Z,14.75
2019-05-01T12:19:23.312Z,14.81
2019-05-01T12:21:49.297Z,14.78
2019-05-01T12:24:15.300Z,14.53
2019-05-01T12:26:41.331Z,14.30
2019-05-01T12:29:10.332Z,14.17
2019-05-01T12:31:36.292Z,14.25
2019-05-01T12:34:02.373Z,14.33
2019-05-01T12:36:35.929Z,14.28
2019-05-01T12:38:56.354Z,14.25
2019-05-01T12:41:24.234Z,14.14
2019-05-01T12:43:50.238Z,14.16
2019-05-01T12:46:34.723Z,14.15
2019-05-01T12:49:01.276Z,14.19
2019-05-01T12:51:27.269Z,14.21
2019-05-01T12:53:55.142Z,14.22
2019-05-01T12:56:25.946Z,14.27
2019-05-01T12:58:55.867Z,14.43
2019-05-01T13:01:20.998Z,14.49
2019-05-01T13:03:46.979Z,14.47
2019-05-01T13:06:14.510Z,14.42
2019-05-01T13:08:41.810Z,14.53
2019-05-01T13:11:07.909Z,14.64
2019-05-01T13:13:34.080Z,14.71
2019-05-01T13:16:00.228Z,14.78
2019-05-01T13:18:26.360Z,14.80
2019-05-01T13:20:52.337Z,14.80
2019-05-01T13:23:18.302Z,14.82
2019-05-01T13:25:44.790Z,14.85
2019-05-01T13:28:30.560Z,14.89
2019-05-01T13:30:58.426Z,14.86
2019-05-01T13:33:24.567Z,14.92
2019-05-01T13:35:50.521Z,14.87
2019-05-01T13:38:16.599Z,14.91
2019-05-01T13:40:42.679Z,14.94
2019-05-01T13:43:09.058Z,14.92
2019-05-01T13:45:35.193Z,15.08
2019-05-01T13:48:03.119Z,15.22
2019-05-01T13:50:29.158Z,15.20
2019-05-01T13:52:55.181Z,15.05
2019-05-01T13:55:21.223Z,14.91
2019-05-01T13:57:47.199Z,14.84
2019-05-01T14:00:13.617Z,14.81
2019-05-01T14:02:42.619Z,14.75
2019-05-01T14:05:09.037Z,14.70
2019-05-01T14:07:35.156Z,14.74
2019-05-01T14:10:01.351Z,14.88
2019-05-01T14:12:27.363Z,15.01
2019-05-01T14:14:53.338Z,14.97
2019-05-01T14:17:19.319Z,15.04
2019-05-01T14:19:47.215Z,15.05
2019-05-01T14:24:47.348Z,15.02
2019-05-01T14:27:13.338Z,14.95
2019-05-01T14:29:39.315Z,14.87
2019-05-01T14:32:05.375Z,14.88
2019-05-01T14:34:36.056Z,14.92
2019-05-01T14:37:02.197Z,14.98
2019-05-01T14:39:28.179Z,14.96
2019-05-01T14:41:54.287Z,15.01
2019-05-01T14:44:22.257Z,15.11
2019-05-01T14:46:48.258Z,15.11
2019-05-01T14:49:14.366Z,15.17
2019-05-01T14:51:40.372Z,15.29
2019-05-01T14:54:06.379Z,15.44
2019-05-01T14:56:32.448Z,15.56
2019-05-01T14:58:58.404Z,15.64
2019-05-01T15:01:24.374Z,15.72
2019-05-01T15:03:50.496Z,15.80
2019-05-01T15:06:16.465Z,15.82
2019-05-01T15:08:42.470Z,15.78
2019-05-01T15:11:08.521Z,15.70
2019-05-01T15:13:36.482Z,15.68
2019-05-01T15:16:12.935Z,15.69
2019-05-01T15:18:45.225Z,15.61
2019-05-01T15:21:11.332Z,15.63
2019-05-01T15:23:37.196Z,15.76
2019-05-01T15:26:03.153Z,15.80
2019-05-01T15:28:29.149Z,15.83
2019-05-01T15:30:55.124Z,15.83
2019-05-01T15:33:21.281Z,15.83
2019-05-01T15:35:47.373Z,15.69
2019-05-01T15:38:13.332Z,15.62
2019-05-01T15:40:56.422Z,15.60
2019-05-01T15:43:33.546Z,15.60
2019-05-01T15:45:59.649Z,15.62
2019-05-01T15:48:25.767Z,15.66
2019-05-01T15:50:51.898Z,15.60
2019-05-01T15:53:17.979Z,15.53
2019-05-01T15:55:46.507Z,15.49
2019-05-01T15:58:12.204Z,15.58
2019-05-01T16:00:38.272Z,15.66
2019-05-01T16:03:04.383Z,15.79
2019-05-01T16:05:30.559Z,15.71
2019-05-01T16:08:08.674Z,15.64
2019-05-01T16:10:26.282Z,15.75
2019-05-01T16:12:56.152Z,15.71
2019-05-01T16:15:29.838Z,15.70
2019-05-01T16:17:55.872Z,15.70
2019-05-01T16:20:21.836Z,15.82
2019-05-01T16:22:47.870Z,15.88
2019-05-01T16:25:14.038Z,15.86
2019-05-01T16:27:41.872Z,15.82
2019-05-01T16:30:08.269Z,15.80
2019-05-01T16:32:34.408Z,15.64
2019-05-01T16:35:00.401Z,15.52
2019-05-01T16:37:26.504Z,15.48
2019-05-01T16:39:54.422Z,15.52
2019-05-01T16:42:20.811Z,15.37
2019-05-01T16:44:46.932Z,15.25
2019-05-01T16:47:13.030Z,15.23
2019-05-01T16:49:39.226Z,15.07
2019-05-01T16:52:05.735Z,15.01
2019-05-01T16:54:31.853Z,15.04
2019-05-01T16:56:58.125Z,15.06
2019-05-01T16:59:24.299Z,15.00
2019-05-01T17:01:52.213Z,14.98
2019-05-01T17:04:20.200Z,14.92
2019-05-01T17:07:04.925Z,15.01
2019-05-01T17:09:49.262Z,15.06
2019-05-01T17:12:17.314Z,15.00
2019-05-01T17:14:43.383Z,14.98
2019-05-01T17:17:11.349Z,14.89
2019-05-01T17:19:37.453Z,14.91
2019-05-01T17:22:03.588Z,14.86
2019-05-01T17:24:29.850Z,14.80
2019-05-01T17:26:55.951Z,14.71
2019-05-01T17:29:22.028Z,14.70
2019-05-01T17:31:48.200Z,14.72
2019-05-01T17:34:14.363Z,14.72
2019-05-01T17:36:40.431Z,14.72
2019-05-01T17:39:06.637Z,14.70
2019-05-01T17:41:32.761Z,14.63
2019-05-01T17:43:58.749Z,14.57
2019-05-01T17:46:26.796Z,14.48
2019-05-01T17:48:52.944Z,14.40
2019-05-01T17:51:19.948Z,14.38
2019-05-01T17:53:46.153Z,14.30
2019-05-01T17:56:15.321Z,14.24
2019-05-01T17:58:40.109Z,14.17
2019-05-01T18:01:07.994Z,14.06
2019-05-01T18:03:36.204Z,13.94
2019-05-01T18:06:09.677Z,13.87
2019-05-01T18:08:35.791Z,13.70
2019-05-01T18:11:01.804Z,13.54
2019-05-01T18:13:28.258Z,13.43
2019-05-01T18:15:54.475Z,13.20
2019-05-01T18:18:29.660Z,13.19
2019-05-01T18:20:55.840Z,13.19
2019-05-01T18:23:42.821Z,13.07
2019-05-01T18:26:20.152Z,12.98
2019-05-01T18:29:05.775Z,12.91
2019-05-01T18:31:34.268Z,12.80
2019-05-01T18:34:02.587Z,12.80
2019-05-01T18:36:30.173Z,12.67
2019-05-01T18:41:37.724Z,12.58
2019-05-01T18:44:10.005Z,12.59
2019-05-01T18:46:33.861Z,12.62
2019-05-01T18:49:00.627Z,12.64
2019-05-01T18:51:26.770Z,12.64
2019-05-01T18:53:57.484Z,12.53
2019-05-01T18:56:21.206Z,12.51
2019-05-01T18:58:47.502Z,12.48
2019-05-01T19:01:14.070Z,12.43
2019-05-01T19:03:42.492Z,12.40
2019-05-01T19:06:08.447Z,12.32
2019-05-01T19:08:34.732Z,12.27
2019-05-01T19:11:11.680Z,12.17
2019-05-01T19:13:29.075Z,12.15
2019-05-01T19:15:55.226Z,12.07
2019-05-01T19:18:21.349Z,12.08
2019-05-01T19:20:58.917Z,12.06
2019-05-01T19:23:16.064Z,11.98
2019-05-01T19:25:44.048Z,11.88
2019-05-01T19:28:12.183Z,11.84
2019-05-01T19:30:38.486Z,11.81
2019-05-01T19:33:04.691Z,11.77
2019-05-01T19:35:34.124Z,11.75
2019-05-01T19:37:59.068Z,11.72
2019-05-01T19:40:30.408Z,11.68
2019-05-01T19:42:58.084Z,11.59
2019-05-01T19:45:21.853Z,11.55
2019-05-01T19:47:48.085Z,11.48
2019-05-01T19:50:14.669Z,11.44
2019-05-01T19:52:40.816Z,11.40
2019-05-01T19:55:07.739Z,11.33
2019-05-01T19:57:34.077Z,11.21
2019-05-01T20:00:00.159Z,11.16
2019-05-01T20:02:26.383Z,11.03
2019-05-01T20:04:52.571Z,10.94
2019-05-01T20:07:21.528Z,10.92
2019-05-01T20:09:56.704Z,10.84
2019-05-01T20:12:15.095Z,10.74
2019-05-01T20:14:41.322Z,10.72
2019-05-01T20:17:10.095Z,10.67
2019-05-01T20:19:35.533Z,10.54
2019-05-01T20:22:01.731Z,10.39
2019-05-01T20:24:27.812Z,10.39
2019-05-01T20:27:29.276Z,10.28
2019-05-01T20:29:55.315Z,10.20
2019-05-01T20:32:26.331Z,10.10
2019-05-01T20:34:52.803Z,10.08
2019-05-01T20:37:18.414Z,10.08
2019-05-01T20:39:44.566Z,10.07
2019-05-01T20:42:10.733Z,10.00
2019-05-01T20:44:39.756Z,9.94
2019-05-01T20:47:05.786Z,9.94
2019-05-01T20:49:31.908Z,9.88
2019-05-01T20:51:57.926Z,9.84
2019-05-01T20:54:24.051Z,9.77
2019-05-01T20:56:51.884Z,9.69
2019-05-01T20:59:18.225Z,9.66
2019-05-01T21:01:44.459Z,9.60
2019-05-01T21:04:12.403Z,9.53
2019-05-01T21:06:43.732Z,9.52
2019-05-01T21:09:15.594Z,9.55
2019-05-01T21:11:47.377Z,9.50
2019-05-01T21:14:22.002Z,9.48
2019-05-01T21:16:44.023Z,9.43
2019-05-01T21:19:10.254Z,9.41
2019-05-01T21:21:36.430Z,9.36
2019-05-01T21:24:03.667Z,9.29
2019-05-01T21:26:29.995Z,9.27
2019-05-01T21:28:56.605Z,9.28
2019-05-01T21:31:24.054Z,9.13
2019-05-01T21:33:50.665Z,9.09
2019-05-01T21:36:16.978Z,9.07
2019-05-01T21:38:43.182Z,9.05
2019-05-01T21:41:09.338Z,9.06
2019-05-01T21:43:37.096Z,8.99
2019-05-01T21:46:04.047Z,8.87
2019-05-01T21:48:30.369Z,8.87
2019-05-01T21:50:58.078Z,8.88
2019-05-01T21:53:24.512Z,8.85
2019-05-01T21:55:50.729Z,8.92
2019-05-01T21:58:21.071Z,8.93
2019-05-01T22:00:45.639Z,8.93
2019-05-01T22:03:11.847Z,8.76
2019-05-01T22:05:39.700Z,8.74
2019-05-01T22:08:06.028Z,8.68
2019-05-01T22:10:32.189Z,8.72
2019-05-01T22:12:58.647Z,8.69
2019-05-01T22:15:42.063Z,8.68
2019-05-01T22:18:27.274Z,8.74
2019-05-01T22:21:07.617Z,8.75
2019-05-01T22:23:50.858Z,8.72
2019-05-01T22:26:17.470Z,8.63
2019-05-01T22:28:50.129Z,8.65
2019-05-01T22:31:36.420Z,8.65
2019-05-01T22:34:07.402Z,8.70
2019-05-01T22:36:33.626Z,8.62
2019-05-01T22:39:02.192Z,8.62
2019-05-01T22:41:27.881Z,8.59
2019-05-01T22:43:54.013Z,8.55
2019-05-01T22:46:22.050Z,8.53
2019-05-01T22:48:48.169Z,8.46
2019-05-01T22:51:16.260Z,8.52
2019-05-01T22:53:42.376Z,8.57
2019-05-01T22:56:08.402Z,8.48
2019-05-01T22:58:34.440Z,8.52
2019-05-01T23:01:00.967Z,8.60
2019-05-01T23:03:29.016Z,8.67
2019-05-01T23:05:55.254Z,8.65
2019-05-01T23:08:21.382Z,8.73
2019-05-01T23:10:48.563Z,8.71
2019-05-01T23:13:14.836Z,8.73
2019-05-01T23:15:41.064Z,8.77
2019-05-01T23:18:10.562Z,8.80
2019-05-01T23:20:39.095Z,8.83
2019-05-01T23:23:03.652Z,8.88
2019-05-01T23:25:29.777Z,8.91
2019-05-01T23:27:59.647Z,8.96
2019-05-01T23:30:24.151Z,9.00
2019-05-01T23:32:50.292Z,9.02
2019-05-01T23:35:16.411Z,9.04
2019-05-01T23:37:42.542Z,9.07
2019-05-01T23:40:10.851Z,9.06
2019-05-01T23:42:37.491Z,9.08
2019-05-01T23:45:05.022Z,9.03
2019-05-01T23:47:31.147Z,9.01
2019-05-01T23:49:57.306Z,8.97
2019-05-01T23:52:23.462Z,9.00
2019-05-01T23:54:49.602Z,9.03
2019-05-01T23:57:18.863Z,9.07
2019-05-01T23:59:43.988Z,9.02
